createdAt,value
2019-03-11T00:00:59.747Z,97049.95
2019-03-11T00:02:09.066Z,97045.45
2019-03-11T00:03:17.238Z,97055.48
2019-03-11T00:04:26.096Z,97028.85
2019-03-11T00:05:34.804Z,97059.91
2019-03-11T00:06:43.018Z,97043.33
2019-03-11T00:07:51.138Z,97041.48
2019-03-11T00:08:59.284Z,97046.58
2019-03-11T00:10:09.451Z,97048.86
2019-03-11T00:11:17.541Z,97058.75
2019-03-11T00:12:25.456Z,97061.06
2019-03-11T00:13:33.486Z,97050.97
2019-03-11T00:14:41.174Z,97047.50
2019-03-11T00:15:49.128Z,97047.84
2019-03-11T00:16:57.203Z,97053.13
2019-03-11T00:18:05.389Z,97052.30
2019-03-11T00:19:13.309Z,97044.52
2019-03-11T00:20:21.510Z,97045.02
2019-03-11T00:21:29.405Z,97051.06
2019-03-11T00:22:37.217Z,97037.16
2019-03-11T00:23:45.031Z,97013.98
2019-03-11T00:24:52.985Z,97058.77
2019-03-11T00:26:00.959Z,97084.44
2019-03-11T00:27:09.327Z,97039.72
2019-03-11T00:28:17.260Z,97062.45
2019-03-11T00:29:25.429Z,97039.58
2019-03-11T00:30:33.264Z,97046.78
2019-03-11T00:31:41.094Z,97062.06
2019-03-11T00:32:49.138Z,97040.29
2019-03-11T00:33:58.376Z,97047.27
2019-03-11T00:35:07.740Z,97011.25
2019-03-11T00:36:15.533Z,97024.17
2019-03-11T00:37:23.444Z,97061.94
2019-03-11T00:38:31.100Z,97036.87
2019-03-11T00:39:39.078Z,97045.32
2019-03-11T00:40:47.331Z,97051.66
2019-03-11T00:41:55.116Z,97037.28
2019-03-11T00:43:02.908Z,97055.98
2019-03-11T00:44:10.921Z,97053.06
2019-03-11T00:45:18.895Z,97068.78
2019-03-11T00:46:26.807Z,97045.80
2019-03-11T00:47:34.544Z,97048.16
2019-03-11T00:48:42.264Z,97050.66
2019-03-11T00:49:50.354Z,97052.00
2019-03-11T00:50:58.254Z,97044.06
2019-03-11T00:52:06.456Z,97016.14
2019-03-11T00:53:14.323Z,97043.13
2019-03-11T00:54:22.125Z,97030.07
2019-03-11T00:55:30.040Z,97037.89
2019-03-11T00:56:37.722Z,97035.23
2019-03-11T00:57:45.572Z,97003.81
2019-03-11T00:58:53.378Z,97029.63
2019-03-11T01:00:01.173Z,97023.34
2019-03-11T01:01:09.148Z,97001.50
2019-03-11T01:02:17.084Z,97024.42
2019-03-11T01:03:25.159Z,97046.97
2019-03-11T01:04:33.000Z,97046.27
2019-03-11T01:05:40.777Z,97033.47
2019-03-11T01:06:48.631Z,97037.54
2019-03-11T01:07:56.460Z,97051.36
2019-03-11T01:09:05.826Z,97030.11
2019-03-11T01:10:13.910Z,97002.65
2019-03-11T01:11:21.703Z,97021.26
2019-03-11T01:12:29.556Z,97023.35
2019-03-11T01:13:37.394Z,97036.87
2019-03-11T01:14:45.053Z,96990.20
2019-03-11T01:15:52.792Z,97033.09
2019-03-11T01:17:00.747Z,97028.11
2019-03-11T01:18:08.831Z,97034.88
2019-03-11T01:19:16.621Z,97077.81
2019-03-11T01:20:24.547Z,97010.74
2019-03-11T01:21:32.369Z,97020.48
2019-03-11T01:22:40.232Z,96991.84
2019-03-11T01:23:48.123Z,96954.30
2019-03-11T01:24:55.900Z,97085.59
2019-03-11T01:26:04.413Z,97058.52
2019-03-11T01:27:12.295Z,97019.05
2019-03-11T01:28:20.409Z,97119.00
2019-03-11T01:29:28.426Z,97059.77
2019-03-11T01:30:36.664Z,97097.20
2019-03-11T01:31:45.491Z,97085.66
2019-03-11T01:32:54.070Z,97105.44
2019-03-11T01:34:02.474Z,97025.86
2019-03-11T01:35:11.227Z,97121.77
2019-03-11T01:36:19.617Z,97092.33
2019-03-11T01:37:27.705Z,97077.34
2019-03-11T01:38:35.745Z,97138.52
2019-03-11T01:39:46.202Z,97128.59
2019-03-11T01:40:54.361Z,97063.16
2019-03-11T01:42:02.420Z,97089.64
2019-03-11T01:43:10.231Z,97115.80
2019-03-11T01:44:18.091Z,97126.41
2019-03-11T01:45:25.837Z,97132.32
2019-03-11T01:46:33.595Z,97138.38
2019-03-11T01:47:41.620Z,97132.17
2019-03-11T01:48:49.561Z,97152.63
2019-03-11T01:49:57.491Z,97149.07
2019-03-11T01:51:05.851Z,97153.31
2019-03-11T01:52:13.568Z,97157.31
2019-03-11T01:53:21.419Z,97198.52
2019-03-11T01:54:29.561Z,97183.73
2019-03-11T01:55:37.501Z,97178.25
2019-03-11T01:56:45.421Z,97211.52
2019-03-11T01:57:54.790Z,97231.09
2019-03-11T01:59:02.879Z,97237.34
2019-03-11T02:00:14.883Z,97191.95
2019-03-11T02:01:22.919Z,97216.77
2019-03-11T02:02:30.775Z,97240.02
2019-03-11T02:03:38.525Z,97272.11
2019-03-11T02:04:46.558Z,97264.70
2019-03-11T02:05:54.418Z,97301.48
2019-03-11T02:07:02.734Z,97282.01
2019-03-11T02:08:10.980Z,97285.61
2019-03-11T02:09:19.736Z,97229.92
2019-03-11T02:10:28.048Z,97280.34
2019-03-11T02:11:35.930Z,97309.84
2019-03-11T02:12:44.018Z,97295.12
2019-03-11T02:13:52.323Z,97347.06
2019-03-11T02:15:00.518Z,97291.17
2019-03-11T02:16:08.430Z,97271.45
2019-03-11T02:17:16.114Z,97304.20
2019-03-11T02:18:24.407Z,97319.49
2019-03-11T02:19:32.502Z,97296.41
2019-03-11T02:20:40.596Z,97305.98
2019-03-11T02:21:48.492Z,97332.41
2019-03-11T02:22:56.290Z,97286.77
2019-03-11T02:24:04.161Z,97346.98
2019-03-11T02:25:12.543Z,97365.64
2019-03-11T02:26:20.477Z,97350.94
2019-03-11T02:27:28.516Z,97365.66
2019-03-11T02:28:36.254Z,97396.13
2019-03-11T02:29:44.396Z,97371.75
2019-03-11T02:30:52.557Z,97432.23
2019-03-11T02:32:00.623Z,97431.90
2019-03-11T02:33:08.643Z,97432.73
2019-03-11T02:34:16.766Z,97478.03
2019-03-11T02:35:30.547Z,97471.70
2019-03-11T02:36:38.430Z,97428.77
2019-03-11T02:37:46.526Z,97491.27
2019-03-11T02:38:54.410Z,97491.27
2019-03-11T02:40:02.738Z,97482.31
2019-03-11T02:41:10.640Z,97528.67
2019-03-11T02:42:18.508Z,97543.19
2019-03-11T02:43:26.300Z,97531.71
2019-03-11T02:44:34.565Z,97580.59
2019-03-11T02:45:42.755Z,97571.17
2019-03-11T02:46:50.808Z,97579.28
2019-03-11T02:47:59.008Z,97595.50
2019-03-11T02:49:06.883Z,97604.74
2019-03-11T02:50:15.072Z,97614.53
2019-03-11T02:51:22.819Z,97636.39
2019-03-11T02:52:30.877Z,97642.24
2019-03-11T02:53:38.896Z,97621.05
2019-03-11T02:54:46.969Z,97661.96
2019-03-11T02:55:54.750Z,97656.28
2019-03-11T02:57:02.856Z,97673.64
2019-03-11T02:58:10.600Z,97657.45
2019-03-11T02:59:18.469Z,97683.96
2019-03-11T03:00:26.766Z,97679.94
2019-03-11T03:01:52.663Z,97705.45
2019-03-11T03:03:18.301Z,97719.23
2019-03-11T03:04:39.881Z,97700.89
2019-03-11T03:05:49.633Z,97718.98
2019-03-11T03:06:57.634Z,97702.17
2019-03-11T03:08:06.016Z,97723.25
2019-03-11T03:09:15.691Z,97730.80
2019-03-11T03:10:23.789Z,97730.03
2019-03-11T03:11:31.870Z,97729.16
2019-03-11T03:12:39.676Z,97732.29
2019-03-11T03:13:47.393Z,97745.95
2019-03-11T03:14:55.669Z,97745.45
2019-03-11T03:16:03.751Z,97747.31
2019-03-11T03:17:11.811Z,97758.72
2019-03-11T03:18:19.691Z,97761.52
2019-03-11T03:19:27.660Z,97763.67
2019-03-11T03:20:35.859Z,97769.47
2019-03-11T03:21:43.994Z,97776.34
2019-03-11T03:22:51.879Z,97785.71
2019-03-11T03:23:59.921Z,97801.11
2019-03-11T03:25:12.033Z,97780.95
2019-03-11T03:26:20.294Z,97793.06
2019-03-11T03:27:28.493Z,97799.05
2019-03-11T03:28:36.698Z,97797.94
2019-03-11T03:29:44.658Z,97804.59
2019-03-11T03:30:52.774Z,97772.12
2019-03-11T03:32:00.782Z,97797.31
2019-03-11T03:33:08.736Z,97799.77
2019-03-11T03:34:17.242Z,97811.09
2019-03-11T03:35:25.067Z,97792.73
2019-03-11T03:36:32.925Z,97818.55
2019-03-11T03:37:40.814Z,97834.10
2019-03-11T03:38:48.744Z,97829.50
2019-03-11T03:39:56.609Z,97840.85
2019-03-11T03:41:04.670Z,97847.23
2019-03-11T03:42:13.568Z,97839.00
2019-03-11T03:43:22.066Z,97850.70
2019-03-11T03:44:30.117Z,97848.47
2019-03-11T03:45:41.354Z,97854.09
2019-03-11T03:46:49.513Z,97849.69
2019-03-11T03:47:57.882Z,97865.52
2019-03-11T03:49:06.202Z,97869.35
2019-03-11T03:50:14.712Z,97870.50
2019-03-11T03:51:22.701Z,97867.67
2019-03-11T03:52:30.553Z,97875.37
2019-03-11T03:53:38.323Z,97879.11
2019-03-11T03:54:46.277Z,97884.45
2019-03-11T03:55:54.270Z,97884.56
2019-03-11T03:57:02.471Z,97889.70
2019-03-11T03:58:10.235Z,97885.30
2019-03-11T03:59:18.045Z,97892.70
2019-03-11T04:00:26.579Z,97890.44
2019-03-11T04:01:34.463Z,97896.90
2019-03-11T04:02:42.421Z,97904.02
2019-03-11T04:03:50.453Z,97910.79
2019-03-11T04:04:58.621Z,97911.42
2019-03-11T04:06:06.542Z,97918.83
2019-03-11T04:07:14.408Z,97890.64
2019-03-11T04:08:22.408Z,97917.52
2019-03-11T04:09:30.325Z,97915.00
2019-03-11T04:10:38.420Z,97908.23
2019-03-11T04:11:46.406Z,97918.34
2019-03-11T04:12:54.702Z,97915.83
2019-03-11T04:14:02.847Z,97917.71
2019-03-11T04:15:11.997Z,97918.19
2019-03-11T04:16:20.359Z,97904.59
2019-03-11T04:17:28.747Z,97930.14
2019-03-11T04:18:54.274Z,97917.97
2019-03-11T04:20:02.438Z,97915.55
2019-03-11T04:21:10.430Z,97933.31
2019-03-11T04:22:18.494Z,97935.74
2019-03-11T04:23:26.726Z,97928.19
2019-03-11T04:24:34.710Z,97935.37
2019-03-11T04:25:42.670Z,97925.71
2019-03-11T04:26:54.412Z,97933.78
2019-03-11T04:28:02.597Z,97924.50
2019-03-11T04:29:10.789Z,97936.97
2019-03-11T04:30:23.186Z,97943.59
2019-03-11T04:31:31.091Z,97938.09
2019-03-11T04:32:38.870Z,97934.82
2019-03-11T04:33:47.226Z,97942.02
2019-03-11T04:34:55.177Z,97952.72
2019-03-11T04:36:03.389Z,97952.25
2019-03-11T04:37:11.204Z,97954.76
2019-03-11T04:38:19.283Z,97947.45
2019-03-11T04:39:27.298Z,97948.39
2019-03-11T04:40:35.171Z,97953.05
2019-03-11T04:41:43.143Z,97965.95
2019-03-11T04:42:51.578Z,97965.20
2019-03-11T04:43:59.539Z,97960.91
2019-03-11T04:45:11.477Z,97962.86
2019-03-11T04:46:19.795Z,97961.08
2019-03-11T04:47:27.745Z,97973.19
2019-03-11T04:48:35.979Z,97971.78
2019-03-11T04:49:44.000Z,97979.08
2019-03-11T04:50:51.924Z,97964.95
2019-03-11T04:52:00.060Z,97969.80
2019-03-11T04:53:07.930Z,97980.78
2019-03-11T04:54:15.722Z,97980.41
2019-03-11T04:55:23.630Z,97978.56
2019-03-11T04:56:31.569Z,97984.71
2019-03-11T04:57:53.954Z,97991.48
2019-03-11T04:59:13.332Z,97997.84
2019-03-11T05:00:25.379Z,97992.32
2019-03-11T05:01:33.252Z,97999.15
2019-03-11T05:02:41.345Z,97995.99
2019-03-11T05:03:49.696Z,97992.79
2019-03-11T05:04:57.661Z,98012.67
2019-03-11T05:06:05.607Z,97991.39
2019-03-11T05:07:14.266Z,98008.64
2019-03-11T05:08:22.324Z,98016.48
2019-03-11T05:09:30.569Z,98018.80
2019-03-11T05:10:38.682Z,98021.98
2019-03-11T05:11:46.574Z,98009.24
2019-03-11T05:12:54.763Z,98024.63
2019-03-11T05:14:03.222Z,98026.41
2019-03-11T05:15:13.937Z,98031.38
2019-03-11T05:16:22.147Z,98026.59
2019-03-11T05:17:30.349Z,98036.52
2019-03-11T05:18:38.511Z,98040.27
2019-03-11T05:19:46.485Z,98038.89
2019-03-11T05:20:55.020Z,98038.97
2019-03-11T05:22:03.429Z,98048.93
2019-03-11T05:23:11.529Z,98049.46
2019-03-11T05:24:19.611Z,98048.25
2019-03-11T05:25:28.020Z,98055.95
2019-03-11T05:26:36.124Z,98066.23
2019-03-11T05:27:44.726Z,98058.55
2019-03-11T05:28:53.218Z,98064.77
2019-03-11T05:30:01.651Z,98072.70
2019-03-11T05:31:09.790Z,98071.02
2019-03-11T05:32:17.752Z,98065.77
2019-03-11T05:33:25.580Z,98071.52
2019-03-11T05:34:33.829Z,98071.42
2019-03-11T05:35:42.128Z,98071.81
2019-03-11T05:36:50.131Z,98067.84
2019-03-11T05:37:58.154Z,98080.05
2019-03-11T05:39:08.066Z,98075.73
2019-03-11T05:40:21.113Z,98072.63
2019-03-11T05:41:29.198Z,98078.08
2019-03-11T05:42:36.988Z,98075.19
2019-03-11T05:43:44.936Z,98075.73
2019-03-11T05:44:53.219Z,98078.56
2019-03-11T05:46:01.061Z,98077.25
2019-03-11T05:47:08.834Z,98082.97
2019-03-11T05:48:16.810Z,98083.24
2019-03-11T05:49:24.828Z,98082.03
2019-03-11T05:50:33.225Z,98070.78
2019-03-11T05:51:41.329Z,98084.76
2019-03-11T05:52:49.197Z,98077.72
2019-03-11T05:53:57.223Z,98088.02
2019-03-11T05:55:06.017Z,98088.39
2019-03-11T05:56:13.875Z,98092.43
2019-03-11T05:57:22.231Z,98086.13
2019-03-11T05:58:30.043Z,98085.59
2019-03-11T05:59:38.303Z,98095.89
2019-03-11T06:00:46.265Z,98095.32
2019-03-11T06:01:54.195Z,98085.11
2019-03-11T06:03:02.374Z,98089.42
2019-03-11T06:04:10.389Z,98088.11
2019-03-11T06:05:18.582Z,98103.13
2019-03-11T06:06:26.651Z,98091.67
2019-03-11T06:07:34.761Z,98099.92
2019-03-11T06:08:42.826Z,98098.98
2019-03-11T06:09:51.071Z,98096.72
2019-03-11T06:10:59.012Z,98105.34
2019-03-11T06:12:07.045Z,98102.91
2019-03-11T06:13:15.178Z,98096.13
2019-03-11T06:14:23.155Z,98098.31
2019-03-11T06:15:31.124Z,98090.33
2019-03-11T06:16:39.391Z,98102.14
2019-03-11T06:17:47.398Z,98091.78
2019-03-11T06:18:55.406Z,98098.66
2019-03-11T06:20:11.276Z,98097.70
2019-03-11T06:21:21.159Z,98092.71
2019-03-11T06:22:29.669Z,98099.55
2019-03-11T06:23:37.673Z,98091.48
2019-03-11T06:24:45.446Z,98094.38
2019-03-11T06:25:53.370Z,98093.43
2019-03-11T06:27:01.826Z,98079.63
2019-03-11T06:28:10.125Z,98084.89
2019-03-11T06:29:18.339Z,98082.36
2019-03-11T06:30:26.665Z,98092.41
2019-03-11T06:31:34.945Z,98093.62
2019-03-11T06:32:42.960Z,98092.49
2019-03-11T06:33:51.053Z,98099.22
2019-03-11T06:34:59.150Z,98094.63
2019-03-11T06:36:07.198Z,98089.63
2019-03-11T06:37:15.378Z,98089.80
2019-03-11T06:38:23.613Z,98092.23
2019-03-11T06:39:31.722Z,98096.75
2019-03-11T06:40:39.821Z,98088.38
2019-03-11T06:41:47.814Z,98090.72
2019-03-11T06:42:55.816Z,98087.17
2019-03-11T06:44:03.825Z,98095.33
2019-03-11T06:45:14.127Z,98095.70
2019-03-11T06:46:22.147Z,98092.01
2019-03-11T06:47:30.445Z,98092.67
2019-03-11T06:48:38.596Z,98087.77
2019-03-11T06:49:46.798Z,98085.40
2019-03-11T06:50:54.998Z,98093.27
2019-03-11T06:52:03.770Z,98088.84
2019-03-11T06:53:12.246Z,98083.50
2019-03-11T06:54:20.868Z,98090.44
2019-03-11T06:55:29.016Z,98094.28
2019-03-11T06:56:37.077Z,98095.13
2019-03-11T06:57:44.990Z,98096.33
2019-03-11T06:58:53.027Z,98102.36
2019-03-11T07:00:01.084Z,98095.30
2019-03-11T07:01:09.027Z,98096.44
2019-03-11T07:02:16.955Z,98104.08
2019-03-11T07:03:25.133Z,98105.10
2019-03-11T07:04:33.219Z,98110.77
2019-03-11T07:05:41.237Z,98108.53
2019-03-11T07:06:49.326Z,98112.08
2019-03-11T07:07:57.409Z,98113.03
2019-03-11T07:09:07.927Z,98114.92
2019-03-11T07:10:17.482Z,98136.08
2019-03-11T07:11:25.688Z,98116.95
2019-03-11T07:12:34.016Z,98131.45
2019-03-11T07:13:42.398Z,98144.52
2019-03-11T07:14:50.598Z,98135.48
2019-03-11T07:15:58.539Z,98135.89
2019-03-11T07:17:06.444Z,98139.06
2019-03-11T07:18:14.117Z,98140.38
2019-03-11T07:19:22.087Z,98147.90
2019-03-11T07:20:30.309Z,98146.42
2019-03-11T07:21:38.461Z,98150.08
2019-03-11T07:22:46.562Z,98152.23
2019-03-11T07:23:54.661Z,98142.56
2019-03-11T07:25:02.704Z,98149.72
2019-03-11T07:26:10.606Z,98143.98
2019-03-11T07:27:18.673Z,98150.38
2019-03-11T07:28:26.644Z,98151.88
2019-03-11T07:29:34.352Z,98150.45
2019-03-11T07:30:42.450Z,98148.13
2019-03-11T07:31:50.620Z,98149.61
2019-03-11T07:32:58.624Z,98139.30
2019-03-11T07:34:06.593Z,98147.09
2019-03-11T07:35:14.693Z,98149.08
2019-03-11T07:36:22.839Z,98143.83
2019-03-11T07:37:30.923Z,98140.62
2019-03-11T07:38:39.031Z,98144.20
2019-03-11T07:39:46.970Z,98140.80
2019-03-11T07:40:55.027Z,98135.94
2019-03-11T07:42:03.278Z,98152.08
2019-03-11T07:43:11.432Z,98138.36
2019-03-11T07:44:19.628Z,98145.67
2019-03-11T07:45:27.571Z,98132.73
2019-03-11T07:46:35.534Z,98135.26
2019-03-11T07:47:43.869Z,98134.61
2019-03-11T07:48:51.783Z,98133.20
2019-03-11T07:49:59.543Z,98135.09
2019-03-11T07:51:07.669Z,98143.05
2019-03-11T07:52:15.981Z,98134.41
2019-03-11T07:53:24.789Z,98153.94
2019-03-11T07:54:36.044Z,98140.63
2019-03-11T07:55:42.819Z,98143.05
2019-03-11T07:56:50.969Z,98139.88
2019-03-11T07:57:59.341Z,98147.93
2019-03-11T07:59:07.320Z,98143.60
2019-03-11T08:00:21.042Z,98146.86
2019-03-11T08:01:29.111Z,98151.48
2019-03-11T08:02:37.032Z,98144.06
2019-03-11T08:03:45.010Z,98147.90
2019-03-11T08:04:53.224Z,98145.25
2019-03-11T08:06:01.220Z,98138.94
2019-03-11T08:07:09.043Z,98144.66
2019-03-11T08:08:17.017Z,98128.87
2019-03-11T08:09:36.934Z,98131.69
2019-03-11T08:10:34.862Z,98133.92
2019-03-11T08:11:42.919Z,98126.48
2019-03-11T08:12:50.801Z,98137.52
2019-03-11T08:13:58.936Z,98138.33
2019-03-11T08:15:11.096Z,98137.42
2019-03-11T08:16:19.228Z,98134.94
2019-03-11T08:17:27.517Z,98107.95
2019-03-11T08:18:35.838Z,98119.47
2019-03-11T08:19:43.884Z,98121.16
2019-03-11T08:20:51.680Z,98117.39
2019-03-11T08:21:59.861Z,98124.41
2019-03-11T08:23:07.783Z,98095.66
2019-03-11T08:24:16.691Z,98123.66
2019-03-11T08:25:24.813Z,98119.90
2019-03-11T08:26:32.729Z,98119.70
2019-03-11T08:27:40.905Z,98119.88
2019-03-11T08:28:49.102Z,98119.84
2019-03-11T08:29:59.416Z,98097.45
2019-03-11T08:31:06.827Z,98121.16
2019-03-11T08:32:14.744Z,98122.61
2019-03-11T08:33:22.793Z,98118.83
2019-03-11T08:34:30.614Z,98112.42
2019-03-11T08:35:39.121Z,98132.26
2019-03-11T08:36:47.079Z,98111.10
2019-03-11T08:37:55.110Z,98115.42
2019-03-11T08:39:02.990Z,98123.88
2019-03-11T08:40:13.958Z,98103.75
2019-03-11T08:41:22.087Z,98111.94
2019-03-11T08:42:30.063Z,98115.78
2019-03-11T08:43:38.554Z,98124.30
2019-03-11T08:44:46.484Z,98129.09
2019-03-11T08:45:54.651Z,98138.17
2019-03-11T08:47:02.647Z,98118.05
2019-03-11T08:48:10.735Z,98121.78
2019-03-11T08:49:18.801Z,98117.46
2019-03-11T08:50:26.785Z,98138.17
2019-03-11T08:51:34.598Z,98126.09
2019-03-11T08:52:42.665Z,98128.84
2019-03-11T08:53:51.020Z,98085.23
2019-03-11T08:54:59.013Z,98121.30
2019-03-11T08:56:06.776Z,98114.67
2019-03-11T08:57:14.750Z,98125.30
2019-03-11T08:58:22.557Z,98125.77
2019-03-11T08:59:30.451Z,98113.39
2019-03-11T09:00:38.860Z,98110.76
2019-03-11T09:01:46.591Z,98102.66
2019-03-11T09:02:54.375Z,98110.63
2019-03-11T09:04:02.455Z,98126.69
2019-03-11T09:05:14.284Z,98106.87
2019-03-11T09:06:22.519Z,98116.15
2019-03-11T09:07:30.407Z,98114.61
2019-03-11T09:08:38.302Z,98125.43
2019-03-11T09:09:46.470Z,98088.19
2019-03-11T09:10:54.430Z,98109.49
2019-03-11T09:12:02.622Z,98108.78
2019-03-11T09:13:10.612Z,98111.72
2019-03-11T09:14:18.502Z,98106.86
2019-03-11T09:15:26.392Z,98111.11
2019-03-11T09:16:34.268Z,98096.40
2019-03-11T09:17:42.813Z,98104.92
2019-03-11T09:18:50.755Z,98096.09
2019-03-11T09:19:58.519Z,98092.25
2019-03-11T09:21:06.767Z,98109.03
2019-03-11T09:22:14.641Z,98099.40
2019-03-11T09:23:22.778Z,98086.94
2019-03-11T09:24:30.955Z,98090.66
2019-03-11T09:25:39.459Z,98093.69
2019-03-11T09:26:47.348Z,98096.09
2019-03-11T09:27:55.445Z,98072.71
2019-03-11T09:29:04.047Z,98087.94
2019-03-11T09:30:21.277Z,98091.54
2019-03-11T09:31:29.257Z,98079.67
2019-03-11T09:32:37.266Z,98087.22
2019-03-11T09:33:45.335Z,98075.59
2019-03-11T09:34:53.349Z,98079.10
2019-03-11T09:36:01.277Z,98082.23
2019-03-11T09:37:09.220Z,98058.27
2019-03-11T09:38:17.435Z,98078.06
2019-03-11T09:39:25.454Z,98072.16
2019-03-11T09:40:33.451Z,98073.35
2019-03-11T09:41:42.031Z,98060.64
2019-03-11T09:42:50.247Z,98073.15
2019-03-11T09:43:58.257Z,98074.59
2019-03-11T09:45:10.583Z,98064.13
2019-03-11T09:46:18.572Z,98074.19
2019-03-11T09:47:26.641Z,98066.19
2019-03-11T09:48:34.645Z,98073.19
2019-03-11T09:49:42.781Z,98071.15
2019-03-11T09:50:50.818Z,98074.66
2019-03-11T09:51:58.797Z,98063.95
2019-03-11T09:53:07.103Z,98067.55
2019-03-11T09:54:15.124Z,98068.42
2019-03-11T09:55:29.143Z,98075.83
2019-03-11T09:56:43.107Z,98068.87
2019-03-11T09:57:46.591Z,98078.95
2019-03-11T09:58:54.552Z,98077.14
2019-03-11T10:00:03.166Z,98080.17
2019-03-11T10:01:11.116Z,98086.30
2019-03-11T10:02:19.105Z,98076.70
2019-03-11T10:03:27.169Z,98085.97
2019-03-11T10:04:35.022Z,98084.17
2019-03-11T10:05:42.953Z,98085.84
2019-03-11T10:06:50.924Z,98074.24
2019-03-11T10:07:59.341Z,98079.97
2019-03-11T10:09:08.327Z,98093.68
2019-03-11T10:10:21.560Z,98102.32
2019-03-11T10:11:29.450Z,98093.32
2019-03-11T10:12:37.441Z,98083.00
2019-03-11T10:13:45.738Z,98091.64
2019-03-11T10:14:53.540Z,98096.44
2019-03-11T10:16:01.409Z,98100.52
2019-03-11T10:17:09.698Z,98101.48
2019-03-11T10:18:17.669Z,98094.64
2019-03-11T10:19:25.448Z,98111.44
2019-03-11T10:20:33.397Z,98107.69
2019-03-11T10:21:41.807Z,98116.08
2019-03-11T10:22:50.175Z,98109.97
2019-03-11T10:23:59.335Z,98114.28
2019-03-11T10:25:10.235Z,98110.80
2019-03-11T10:26:18.297Z,98107.69
2019-03-11T10:27:26.233Z,98110.00
2019-03-11T10:28:34.376Z,98113.36
2019-03-11T10:29:42.372Z,98120.59
2019-03-11T10:30:50.376Z,98102.59
2019-03-11T10:31:58.364Z,98113.36
2019-03-11T10:33:06.300Z,98122.51
2019-03-11T10:34:14.389Z,98109.79
2019-03-11T10:35:37.867Z,98118.82
2019-03-11T10:36:32.519Z,98128.88
2019-03-11T10:37:40.560Z,98116.52
2019-03-11T10:38:48.551Z,98123.20
2019-03-11T10:39:56.470Z,98122.84
2019-03-11T10:41:04.500Z,98119.87
2019-03-11T10:42:12.371Z,98114.95
2019-03-11T10:43:20.326Z,98114.95
2019-03-11T10:44:28.392Z,98107.39
2019-03-11T10:45:36.331Z,98107.15
2019-03-11T10:46:45.172Z,98106.79
2019-03-11T10:47:53.284Z,98103.55
2019-03-11T10:49:01.551Z,98105.14
2019-03-11T10:50:13.409Z,98090.74
2019-03-11T10:51:21.464Z,98124.94
2019-03-11T10:52:29.400Z,98090.98
2019-03-11T10:53:37.461Z,98091.22
2019-03-11T10:54:45.665Z,98088.94
2019-03-11T10:55:53.792Z,98084.79
2019-03-11T10:57:01.958Z,98087.23
2019-03-11T10:58:09.838Z,98078.14
2019-03-11T10:59:18.035Z,98078.99
2019-03-11T11:00:37.359Z,98078.54
2019-03-11T11:01:45.800Z,98072.80
2019-03-11T11:02:53.939Z,98068.59
2019-03-11T11:04:02.211Z,98062.43
2019-03-11T11:05:11.054Z,98063.00
2019-03-11T11:06:19.109Z,98058.61
2019-03-11T11:07:27.234Z,98055.66
2019-03-11T11:08:35.412Z,98043.18
2019-03-11T11:09:43.528Z,98032.27
2019-03-11T11:10:51.499Z,98029.08
2019-03-11T11:11:59.494Z,98027.59
2019-03-11T11:13:07.910Z,98029.27
2019-03-11T11:14:15.968Z,98022.13
2019-03-11T11:15:32.283Z,98020.17
2019-03-11T11:16:40.729Z,98017.73
2019-03-11T11:17:48.812Z,98019.73
2019-03-11T11:18:56.985Z,98014.84
2019-03-11T11:20:07.901Z,97996.67
2019-03-11T11:21:15.677Z,98007.51
2019-03-11T11:22:23.832Z,98020.59
2019-03-11T11:23:31.964Z,98016.88
2019-03-11T11:24:40.077Z,98008.05
2019-03-11T11:25:48.225Z,98012.04
2019-03-11T11:26:56.528Z,98021.77
2019-03-11T11:28:05.226Z,98010.52
2019-03-11T11:29:13.488Z,98017.25
2019-03-11T11:30:25.955Z,98017.27
2019-03-11T11:31:34.241Z,98017.56
2019-03-11T11:32:42.448Z,98017.06
2019-03-11T11:33:50.649Z,98016.17
2019-03-11T11:34:58.728Z,98015.68
2019-03-11T11:36:07.087Z,98020.27
2019-03-11T11:37:14.906Z,98014.50
2019-03-11T11:38:23.079Z,98009.53
2019-03-11T11:39:31.142Z,98009.94
2019-03-11T11:40:39.544Z,98009.39
2019-03-11T11:41:47.772Z,98011.70
2019-03-11T11:42:55.821Z,98013.58
2019-03-11T11:44:03.860Z,98028.90
2019-03-11T11:45:19.105Z,98010.17
2019-03-11T11:46:27.220Z,98002.20
2019-03-11T11:47:35.372Z,97994.67
2019-03-11T11:48:43.457Z,98014.47
2019-03-11T11:49:51.579Z,97997.70
2019-03-11T11:50:59.872Z,98006.77
2019-03-11T11:52:08.163Z,97996.14
2019-03-11T11:53:16.572Z,97995.72
2019-03-11T11:54:24.868Z,97990.06
2019-03-11T11:55:33.058Z,97994.39
2019-03-11T11:56:41.066Z,98001.31
2019-03-11T11:57:49.384Z,97977.22
2019-03-11T11:58:57.462Z,98005.30
2019-03-11T12:00:12.157Z,97983.42
2019-03-11T12:01:20.011Z,97994.53
2019-03-11T12:02:28.422Z,98001.52
2019-03-11T12:03:36.430Z,97989.78
2019-03-11T12:04:44.436Z,98002.47
2019-03-11T12:05:52.510Z,98004.08
2019-03-11T12:07:00.595Z,98010.03
2019-03-11T12:08:08.701Z,98007.17
2019-03-11T12:09:16.719Z,98007.03
2019-03-11T12:10:30.278Z,98005.41
2019-03-11T12:11:38.267Z,98007.61
2019-03-11T12:12:46.523Z,97994.82
2019-03-11T12:13:54.516Z,98002.92
2019-03-11T12:15:02.554Z,98005.03
2019-03-11T12:16:10.902Z,98016.00
2019-03-11T12:17:19.091Z,98013.75
2019-03-11T12:18:27.198Z,98011.53
2019-03-11T12:19:35.113Z,98023.73
2019-03-11T12:20:43.106Z,98009.77
2019-03-11T12:21:51.358Z,98024.92
2019-03-11T12:22:59.417Z,98025.32
2019-03-11T12:24:07.474Z,98019.17
2019-03-11T12:25:17.310Z,98017.34
2019-03-11T12:26:25.632Z,98015.23
2019-03-11T12:27:33.741Z,98022.05
2019-03-11T12:28:41.699Z,98019.80
2019-03-11T12:29:51.532Z,98017.08
2019-03-11T12:30:59.850Z,98017.75
2019-03-11T12:32:08.024Z,98022.38
2019-03-11T12:33:16.061Z,98017.70
2019-03-11T12:34:24.198Z,98017.88
2019-03-11T12:35:32.710Z,98020.80
2019-03-11T12:36:40.852Z,98015.23
2019-03-11T12:37:48.789Z,98018.65
2019-03-11T12:38:56.630Z,98019.28
2019-03-11T12:40:06.263Z,98010.03
2019-03-11T12:41:14.269Z,98006.58
2019-03-11T12:42:22.637Z,98006.23
2019-03-11T12:43:30.550Z,98014.43
2019-03-11T12:44:38.433Z,98025.09
2019-03-11T12:45:46.699Z,98010.28
2019-03-11T12:46:55.161Z,98007.91
2019-03-11T12:48:03.098Z,98012.40
2019-03-11T12:49:11.064Z,98012.75
2019-03-11T12:50:27.796Z,98010.09
2019-03-11T12:51:35.875Z,98003.26
2019-03-11T12:52:43.843Z,98006.92
2019-03-11T12:53:52.084Z,98006.09
2019-03-11T12:55:00.342Z,98001.45
2019-03-11T12:56:08.463Z,97993.52
2019-03-11T12:57:16.502Z,97994.08
2019-03-11T12:58:24.846Z,98001.47
2019-03-11T12:59:40.293Z,97978.66
2019-03-11T13:00:42.785Z,97994.09
2019-03-11T13:01:51.047Z,97998.48
2019-03-11T13:02:59.487Z,97984.77
2019-03-11T13:04:07.397Z,97994.25
2019-03-11T13:05:16.370Z,97994.94
2019-03-11T13:06:24.499Z,97999.73
2019-03-11T13:07:32.755Z,97989.41
2019-03-11T13:08:40.831Z,97997.86
2019-03-11T13:09:49.330Z,98008.14
2019-03-11T13:10:57.701Z,98001.52
2019-03-11T13:12:06.003Z,97989.97
2019-03-11T13:13:14.171Z,97985.56
2019-03-11T13:14:22.407Z,97984.67
2019-03-11T13:15:30.702Z,97974.68
2019-03-11T13:16:39.111Z,97986.37
2019-03-11T13:17:47.441Z,97969.31
2019-03-11T13:18:55.670Z,97990.67
2019-03-11T13:20:04.581Z,97991.16
2019-03-11T13:21:23.060Z,97992.33
2019-03-11T13:22:31.258Z,97972.97
2019-03-11T13:23:41.411Z,97988.94
2019-03-11T13:24:48.961Z,97985.92